createdAt,value
2023-02-17T00:00:39.375Z,-0.64
2023-02-17T00:03:20.987Z,-0.67
2023-02-17T00:05:50.951Z,-0.71
2023-02-17T00:08:18.225Z,-0.75
2023-02-17T00:10:45.479Z,-0.80
2023-02-17T00:13:12.432Z,-0.85
2023-02-17T00:15:39.886Z,-0.90
2023-02-17T00:18:06.815Z,-0.98
2023-02-17T00:20:34.272Z,-1.04
2023-02-17T00:23:01.162Z,-1.12
2023-02-17T00:25:28.344Z,-1.17
2023-02-17T00:27:55.291Z,-1.22
2023-02-17T00:30:23.171Z,-1.26
2023-02-17T00:32:50.096Z,-1.30
2023-02-17T00:35:17.383Z,-1.26
2023-02-17T00:37:45.736Z,-1.23
2023-02-17T00:40:13.759Z,-1.18
2023-02-17T00:42:43.177Z,-1.19
2023-02-17T00:45:10.371Z,-1.19
2023-02-17T00:47:37.227Z,-1.16
2023-02-17T00:50:04.893Z,-1.15
2023-02-17T00:52:31.837Z,-1.10
2023-02-17T00:54:58.996Z,-1.06
2023-02-17T00:57:26.472Z,-1.02
2023-02-17T00:59:56.821Z,-0.96
2023-02-17T01:02:23.750Z,-0.89
2023-02-17T01:04:53.526Z,-0.86
2023-02-17T01:07:22.763Z,-0.79
2023-02-17T01:09:50.457Z,-0.73
2023-02-17T01:12:17.383Z,-0.67
2023-02-17T01:14:44.601Z,-0.60
2023-02-17T01:17:11.557Z,-0.54
2023-02-17T01:19:38.747Z,-0.50
2023-02-17T01:22:07.775Z,-0.45
2023-02-17T01:24:35.254Z,-0.43
2023-02-17T01:27:03.094Z,-0.39
2023-02-17T01:29:30.254Z,-0.39
2023-02-17T01:31:59.757Z,-0.43
2023-02-17T01:34:30.014Z,-0.45
2023-02-17T01:36:56.933Z,-0.45
2023-02-17T01:39:24.295Z,-0.50
2023-02-17T01:41:51.240Z,-0.51
2023-02-17T01:44:22.022Z,-0.52
2023-02-17T01:46:52.155Z,-0.49
2023-02-17T01:49:30.779Z,-0.44
2023-02-17T01:52:04.026Z,-0.43
2023-02-17T01:54:36.104Z,-0.41
2023-02-17T01:57:03.324Z,-0.36
2023-02-17T01:59:31.204Z,-0.35
2023-02-17T02:02:03.249Z,-0.32
2023-02-17T02:04:32.661Z,-0.31
2023-02-17T02:06:59.768Z,-0.31
2023-02-17T02:09:33.118Z,-0.31
2023-02-17T02:12:00.330Z,-0.31
2023-02-17T02:14:31.852Z,-0.27
2023-02-17T02:16:58.794Z,-0.22
2023-02-17T02:19:42.848Z,-0.20
2023-02-17T02:22:10.890Z,-0.17
2023-02-17T02:24:58.671Z,-0.19
2023-02-17T02:27:25.563Z,-0.19
2023-02-17T02:29:52.687Z,-0.20
2023-02-17T02:32:25.704Z,-0.20
2023-02-17T02:35:01.063Z,-0.21
2023-02-17T02:37:32.537Z,-0.18
2023-02-17T02:40:01.398Z,-0.17
2023-02-17T02:42:31.250Z,-0.20
2023-02-17T02:44:58.580Z,-0.22
2023-02-17T02:47:44.549Z,-0.23
2023-02-17T02:50:19.589Z,-0.22
2023-02-17T02:53:06.436Z,-0.19
2023-02-17T02:55:39.872Z,-0.18
2023-02-17T02:58:12.882Z,-0.16
2023-02-17T03:00:48.876Z,-0.15
2023-02-17T03:03:26.364Z,-0.15
2023-02-17T03:05:57.338Z,-0.12
2023-02-17T03:08:43.186Z,-0.05
2023-02-17T03:11:10.468Z,-0.01
2023-02-17T03:13:41.114Z,0.05
2023-02-17T03:16:14.638Z,0.05
2023-02-17T03:18:44.534Z,0.09
2023-02-17T03:21:15.709Z,0.15
2023-02-17T03:23:43.421Z,0.15
2023-02-17T03:26:10.634Z,0.13
2023-02-17T03:28:37.575Z,0.24
2023-02-17T03:31:04.837Z,0.31
2023-02-17T03:33:31.806Z,0.41
2023-02-17T03:35:59.039Z,0.45
2023-02-17T03:38:25.909Z,0.51
2023-02-17T03:40:53.852Z,0.57
2023-02-17T03:43:20.808Z,0.66
2023-02-17T03:45:47.977Z,0.74
2023-02-17T03:48:17.241Z,0.77
2023-02-17T03:50:44.861Z,0.83
2023-02-17T03:53:12.147Z,0.84
2023-02-17T03:55:39.313Z,0.89
2023-02-17T03:58:06.179Z,0.88
2023-02-17T04:00:33.345Z,0.86
2023-02-17T04:03:00.515Z,0.89
2023-02-17T04:05:27.802Z,0.99
2023-02-17T04:07:54.600Z,1.09
2023-02-17T04:10:21.753Z,1.16
2023-02-17T04:12:48.647Z,1.24
2023-02-17T04:15:18.395Z,1.31
2023-02-17T04:17:45.272Z,1.42
2023-02-17T04:20:12.638Z,1.43
2023-02-17T04:22:39.552Z,1.48
2023-02-17T04:25:06.814Z,1.53
2023-02-17T04:27:33.671Z,1.58
2023-02-17T04:30:00.883Z,1.59
2023-02-17T04:32:27.833Z,1.60
2023-02-17T04:34:55.031Z,1.62
2023-02-17T04:37:22.084Z,1.60
2023-02-17T04:39:49.302Z,1.63
2023-02-17T04:42:16.150Z,1.65
2023-02-17T04:44:43.350Z,1.64
2023-02-17T04:47:10.224Z,1.66
2023-02-17T04:49:37.424Z,1.64
2023-02-17T04:52:04.512Z,1.66
2023-02-17T04:54:31.665Z,1.69
2023-02-17T04:56:58.585Z,1.72
2023-02-17T04:59:25.904Z,1.73
2023-02-17T05:01:55.119Z,1.80
2023-02-17T05:04:22.377Z,1.79
2023-02-17T05:06:49.282Z,1.83
2023-02-17T05:09:16.441Z,1.85
2023-02-17T05:11:43.294Z,1.86
2023-02-17T05:14:10.546Z,1.92
2023-02-17T05:16:37.540Z,1.92
2023-02-17T05:19:04.748Z,1.89
2023-02-17T05:21:31.781Z,1.91
2023-02-17T05:23:59.284Z,1.89
2023-02-17T05:26:26.385Z,1.91
2023-02-17T05:28:53.754Z,1.88
2023-02-17T05:31:20.799Z,1.82
2023-02-17T05:33:48.075Z,1.74
2023-02-17T05:36:15.220Z,1.67
2023-02-17T05:38:42.511Z,1.57
2023-02-17T05:41:09.443Z,1.51
2023-02-17T05:43:36.671Z,1.40
2023-02-17T05:46:04.367Z,1.38
2023-02-17T05:48:32.209Z,1.36
2023-02-17T05:50:59.132Z,1.37
2023-02-17T05:53:26.683Z,1.40
2023-02-17T05:55:53.554Z,1.46
2023-02-17T05:58:20.856Z,1.50
2023-02-17T06:00:48.328Z,1.64
2023-02-17T06:03:15.921Z,1.72
2023-02-17T06:05:45.460Z,1.77
2023-02-17T06:08:12.666Z,1.81
2023-02-17T06:10:39.806Z,1.89
2023-02-17T06:13:06.961Z,1.97
2023-02-17T06:15:34.018Z,2.01
2023-02-17T06:18:01.449Z,2.08
2023-02-17T06:20:28.327Z,2.10
2023-02-17T06:22:58.457Z,2.18
2023-02-17T06:25:25.369Z,2.32
2023-02-17T06:27:54.360Z,2.48
2023-02-17T06:30:21.656Z,2.72
2023-02-17T06:32:48.914Z,3.06
2023-02-17T06:35:15.831Z,3.84
2023-02-17T06:37:43.080Z,4.80
2023-02-17T06:40:10.548Z,5.63
2023-02-17T06:42:37.820Z,6.55
2023-02-17T06:45:06.201Z,6.94
2023-02-17T06:47:36.805Z,7.48
2023-02-17T06:50:03.765Z,7.71
2023-02-17T06:52:31.481Z,8.21
2023-02-17T06:54:58.567Z,8.56
2023-02-17T06:57:28.474Z,8.87
2023-02-17T06:59:55.376Z,8.91
2023-02-17T07:02:25.039Z,9.00
2023-02-17T07:04:52.074Z,9.11
2023-02-17T07:07:19.335Z,9.32
2023-02-17T07:09:46.220Z,9.56
2023-02-17T07:12:13.634Z,9.92
2023-02-17T07:14:40.582Z,10.16
2023-02-17T07:17:07.761Z,10.86
2023-02-17T07:19:34.748Z,12.50
2023-02-17T07:22:02.677Z,13.54
2023-02-17T07:24:29.730Z,14.59
2023-02-17T07:26:57.172Z,15.66
2023-02-17T07:29:24.170Z,16.29
2023-02-17T07:31:51.492Z,15.52
2023-02-17T07:34:18.553Z,14.60
2023-02-17T07:36:45.851Z,13.93
2023-02-17T07:39:13.001Z,13.42
2023-02-17T07:41:42.478Z,12.73
2023-02-17T07:44:13.701Z,12.37
2023-02-17T07:46:40.943Z,12.29
2023-02-17T07:49:10.121Z,12.22
2023-02-17T07:51:37.458Z,12.06
2023-02-17T07:54:04.435Z,12.18
2023-02-17T07:56:33.802Z,12.12
2023-02-17T07:59:00.898Z,12.08
2023-02-17T08:01:28.075Z,11.98
2023-02-17T08:03:56.123Z,11.98
2023-02-17T08:06:24.529Z,11.94
2023-02-17T08:09:13.128Z,11.90
2023-02-17T08:11:59.621Z,11.90
2023-02-17T08:14:28.039Z,11.74
2023-02-17T08:16:55.796Z,11.76
2023-02-17T08:19:22.747Z,11.78
2023-02-17T08:21:50.062Z,11.77
2023-02-17T08:24:16.976Z,11.68
2023-02-17T08:26:47.156Z,11.71
2023-02-17T08:29:14.139Z,11.75
2023-02-17T08:31:41.833Z,11.77
2023-02-17T08:34:09.831Z,11.77
2023-02-17T08:36:40.090Z,11.82
2023-02-17T08:39:10.746Z,11.80
2023-02-17T08:41:38.752Z,11.89
2023-02-17T08:44:10.677Z,11.81
2023-02-17T08:46:38.235Z,11.78
2023-02-17T08:49:05.743Z,11.53
2023-02-17T08:51:36.296Z,11.27
2023-02-17T08:54:04.608Z,11.02
2023-02-17T08:56:34.726Z,10.82
2023-02-17T08:59:01.679Z,10.78
2023-02-17T09:01:29.290Z,10.62
2023-02-17T09:03:57.277Z,10.59
2023-02-17T09:06:24.624Z,10.54
2023-02-17T09:08:51.636Z,10.35
2023-02-17T09:11:20.901Z,10.31
2023-02-17T09:13:50.578Z,10.26
2023-02-17T09:16:20.811Z,10.18
2023-02-17T09:18:47.907Z,9.98
2023-02-17T09:21:15.180Z,9.89
2023-02-17T09:23:44.757Z,9.73
2023-02-17T09:26:13.180Z,9.67
2023-02-17T09:28:40.759Z,9.68
2023-02-17T09:31:11.232Z,9.73
2023-02-17T09:33:41.350Z,9.78
2023-02-17T09:36:10.181Z,9.81
2023-02-17T09:38:41.810Z,9.83
2023-02-17T09:41:15.201Z,9.84
2023-02-17T09:43:42.870Z,9.80
2023-02-17T09:46:13.182Z,9.70
2023-02-17T09:48:43.586Z,9.71
2023-02-17T09:51:16.161Z,9.68
2023-02-17T09:53:48.637Z,9.53
2023-02-17T09:56:19.698Z,9.52
2023-02-17T09:58:48.883Z,9.56
2023-02-17T10:01:18.277Z,9.73
2023-02-17T10:03:48.290Z,9.83
2023-02-17T10:06:20.986Z,9.95
2023-02-17T10:08:51.520Z,9.95
2023-02-17T10:11:23.683Z,9.92
2023-02-17T10:13:52.101Z,9.79
2023-02-17T10:16:22.944Z,9.74
2023-02-17T10:18:58.150Z,9.67
2023-02-17T10:21:31.252Z,9.60
2023-02-17T10:23:58.672Z,9.64
2023-02-17T10:26:45.300Z,9.76
2023-02-17T10:29:34.589Z,9.94
2023-02-17T10:32:32.029Z,10.08
2023-02-17T10:35:01.976Z,10.33
2023-02-17T10:37:48.462Z,10.54
2023-02-17T10:40:22.952Z,10.71
2023-02-17T10:42:53.119Z,10.90
2023-02-17T10:45:25.533Z,11.01
2023-02-17T10:47:58.843Z,11.07
2023-02-17T10:50:26.567Z,11.18
2023-02-17T10:52:54.135Z,11.25
2023-02-17T10:55:34.164Z,11.24
2023-02-17T10:58:15.964Z,11.25
2023-02-17T11:00:43.360Z,11.26
2023-02-17T11:03:27.428Z,11.33
2023-02-17T11:05:56.114Z,11.29
2023-02-17T11:08:29.576Z,11.34
2023-02-17T11:11:01.235Z,11.38
2023-02-17T11:13:33.797Z,11.46
2023-02-17T11:16:01.196Z,11.53
2023-02-17T11:18:31.629Z,11.62
2023-02-17T11:21:16.818Z,11.64
2023-02-17T11:24:13.653Z,11.67
2023-02-17T11:26:40.558Z,11.73
2023-02-17T11:29:08.907Z,11.85
2023-02-17T11:31:41.361Z,11.88
2023-02-17T11:34:13.123Z,11.92
2023-02-17T11:36:40.172Z,11.93
2023-02-17T11:39:20.061Z,11.97
2023-02-17T11:41:47.017Z,11.97
2023-02-17T11:44:22.844Z,12.01
2023-02-17T11:46:58.626Z,12.01
2023-02-17T11:49:25.992Z,12.04
2023-02-17T11:52:12.116Z,12.00
2023-02-17T11:54:57.857Z,12.04
2023-02-17T11:57:27.880Z,12.15
2023-02-17T11:59:58.164Z,12.28
2023-02-17T12:02:37.406Z,12.29
2023-02-17T12:05:23.416Z,12.36
2023-02-17T12:07:50.452Z,12.48
2023-02-17T12:10:20.800Z,12.46
2023-02-17T12:13:05.520Z,12.52
2023-02-17T12:15:35.902Z,12.53
2023-02-17T12:18:08.882Z,12.60
2023-02-17T12:20:39.577Z,12.56
2023-02-17T12:23:19.190Z,12.55
2023-02-17T12:25:50.921Z,12.64
2023-02-17T12:28:27.076Z,12.62
2023-02-17T12:31:12.057Z,12.63
2023-02-17T12:33:47.983Z,12.65
2023-02-17T12:36:16.069Z,12.69
2023-02-17T12:38:46.473Z,12.71
2023-02-17T12:41:17.779Z,12.61
2023-02-17T12:43:49.235Z,12.56
2023-02-17T12:46:30.795Z,12.41
2023-02-17T12:49:02.993Z,12.43
2023-02-17T12:51:39.766Z,12.37
2023-02-17T12:54:12.393Z,12.43
2023-02-17T12:56:42.648Z,12.42
2023-02-17T12:59:15.112Z,12.38
2023-02-17T13:01:47.108Z,12.29
2023-02-17T13:04:17.266Z,12.24
2023-02-17T13:06:46.334Z,12.30
2023-02-17T13:09:15.671Z,12.35
2023-02-17T13:11:48.508Z,12.33
2023-02-17T13:14:21.494Z,12.30
2023-02-17T13:16:49.804Z,12.38
2023-02-17T13:19:27.506Z,12.36
2023-02-17T13:21:56.151Z,12.36
2023-02-17T13:24:34.520Z,12.42
2023-02-17T13:27:20.516Z,12.38
2023-02-17T13:29:47.614Z,12.43
2023-02-17T13:32:14.941Z,12.41
2023-02-17T13:34:46.281Z,12.46
2023-02-17T13:37:16.532Z,12.40
2023-02-17T13:39:43.643Z,12.34
2023-02-17T13:42:29.557Z,12.33
2023-02-17T13:44:57.465Z,12.29
2023-02-17T13:47:29.281Z,12.31
2023-02-17T13:49:57.113Z,12.31
2023-02-17T13:52:26.559Z,12.35
2023-02-17T13:55:04.153Z,12.40
2023-02-17T13:57:36.013Z,12.44
2023-02-17T14:00:18.253Z,12.47
2023-02-17T14:02:53.477Z,12.46
2023-02-17T14:05:27.671Z,12.45
2023-02-17T14:07:58.648Z,12.40
2023-02-17T14:10:26.774Z,12.43
2023-02-17T14:12:54.762Z,12.43
2023-02-17T14:15:23.654Z,12.39
2023-02-17T14:17:50.890Z,12.40
2023-02-17T14:20:44.360Z,12.41
2023-02-17T14:23:13.174Z,12.42
2023-02-17T14:25:41.610Z,12.48
2023-02-17T14:28:23.212Z,12.48
2023-02-17T14:30:51.363Z,12.45
2023-02-17T14:33:20.682Z,12.44
2023-02-17T14:35:52.132Z,12.48
2023-02-17T14:38:24.799Z,12.53
2023-02-17T14:40:53.529Z,12.55
2023-02-17T14:43:20.849Z,12.58
2023-02-17T14:45:48.210Z,12.63
2023-02-17T14:48:19.083Z,12.67
2023-02-17T14:50:46.694Z,12.69
2023-02-17T14:53:23.247Z,12.76
2023-02-17T14:55:53.733Z,12.72
2023-02-17T14:58:24.741Z,12.71
2023-02-17T15:00:51.946Z,12.69
2023-02-17T15:03:19.702Z,12.71
2023-02-17T15:05:49.405Z,12.71
2023-02-17T15:08:22.254Z,12.78
2023-02-17T15:10:50.587Z,12.83
2023-02-17T15:13:19.272Z,12.83
2023-02-17T15:15:49.776Z,12.85
2023-02-17T15:18:21.114Z,12.88
2023-02-17T15:20:52.316Z,12.84
2023-02-17T15:23:21.754Z,12.88
2023-02-17T15:25:49.485Z,12.91
2023-02-17T15:28:27.397Z,12.97
2023-02-17T15:30:55.841Z,12.97
2023-02-17T15:33:24.190Z,12.90
2023-02-17T15:35:56.165Z,12.88
2023-02-17T15:38:24.352Z,12.84
2023-02-17T15:40:51.391Z,12.81
2023-02-17T15:43:22.667Z,12.83
2023-02-17T15:45:50.535Z,12.84
2023-02-17T15:48:22.904Z,12.78
2023-02-17T15:50:51.352Z,12.85
2023-02-17T15:53:18.847Z,12.86
2023-02-17T15:55:46.780Z,12.82
2023-02-17T15:58:16.738Z,12.84
2023-02-17T16:00:46.167Z,12.82
2023-02-17T16:03:16.571Z,12.77
2023-02-17T16:05:44.239Z,12.79
2023-02-17T16:08:12.316Z,12.75
2023-02-17T16:10:42.137Z,12.73
2023-02-17T16:13:12.717Z,12.67
2023-02-17T16:15:39.919Z,12.73
2023-02-17T16:18:09.699Z,12.67
2023-02-17T16:20:36.716Z,12.62
2023-02-17T16:23:04.055Z,12.69
2023-02-17T16:25:33.212Z,12.72
2023-02-17T16:28:00.771Z,12.73
2023-02-17T16:30:31.139Z,12.79
2023-02-17T16:32:59.327Z,12.78
2023-02-17T16:35:27.971Z,12.76
2023-02-17T16:38:00.120Z,12.75
2023-02-17T16:40:28.841Z,12.78
2023-02-17T16:42:56.554Z,12.87
2023-02-17T16:45:36.376Z,12.93
2023-02-17T16:48:05.550Z,13.01
2023-02-17T16:50:34.816Z,13.10
2023-02-17T16:53:04.729Z,13.11
2023-02-17T16:55:35.721Z,13.08
2023-02-17T16:58:12.899Z,13.11
2023-02-17T17:00:40.588Z,13.14
2023-02-17T17:03:08.942Z,13.12
2023-02-17T17:05:37.182Z,13.07
2023-02-17T17:08:05.221Z,13.08
2023-02-17T17:10:33.635Z,13.03
2023-02-17T17:13:02.681Z,13.04
2023-02-17T17:15:30.179Z,13.07
2023-02-17T17:18:02.332Z,13.12
2023-02-17T17:20:34.538Z,13.06
2023-02-17T17:23:03.829Z,13.09
2023-02-17T17:25:32.328Z,13.08
2023-02-17T17:28:00.064Z,13.04
2023-02-17T17:30:29.285Z,13.03
2023-02-17T17:32:56.913Z,13.07
2023-02-17T17:35:24.308Z,13.02
2023-02-17T17:37:52.286Z,12.94
2023-02-17T17:40:22.893Z,12.86
2023-02-17T17:42:51.276Z,12.89
2023-02-17T17:45:19.970Z,12.87
2023-02-17T17:47:49.896Z,12.89
2023-02-17T17:50:20.075Z,12.84
2023-02-17T17:52:48.356Z,12.88
2023-02-17T17:55:16.194Z,12.88
2023-02-17T17:57:44.317Z,12.94
2023-02-17T18:00:16.782Z,12.89
2023-02-17T18:02:45.011Z,12.88
2023-02-17T18:05:13.611Z,12.91
2023-02-17T18:07:45.463Z,12.86
2023-02-17T18:10:13.840Z,12.88
2023-02-17T18:12:46.531Z,12.83
2023-02-17T18:15:15.361Z,12.76
2023-02-17T18:17:46.990Z,12.71
2023-02-17T18:20:14.862Z,12.71
2023-02-17T18:22:43.083Z,12.72
2023-02-17T18:25:11.488Z,12.66
2023-02-17T18:27:42.554Z,12.71
2023-02-17T18:30:13.110Z,12.66
2023-02-17T18:32:41.627Z,12.60
2023-02-17T18:35:10.723Z,12.52
2023-02-17T18:37:41.355Z,12.54
2023-02-17T18:40:14.174Z,12.58
2023-02-17T18:42:46.000Z,12.59
2023-02-17T18:45:14.637Z,12.54
2023-02-17T18:47:45.074Z,12.48
2023-02-17T18:50:13.861Z,12.50
2023-02-17T18:52:43.145Z,12.48
2023-02-17T18:55:11.389Z,12.46
2023-02-17T18:57:45.344Z,12.51
2023-02-17T19:00:14.009Z,12.40
2023-02-17T19:02:45.650Z,12.36
2023-02-17T19:05:13.680Z,12.39
2023-02-17T19:07:41.696Z,12.41
2023-02-17T19:10:12.989Z,12.43
2023-02-17T19:12:42.774Z,12.35
2023-02-17T19:15:11.326Z,12.35
2023-02-17T19:17:39.947Z,12.36
2023-02-17T19:20:08.327Z,12.34
2023-02-17T19:22:36.785Z,12.36
2023-02-17T19:25:04.955Z,12.37
2023-02-17T19:27:34.815Z,12.41
2023-02-17T19:30:02.657Z,12.45
2023-02-17T19:32:31.274Z,12.47
2023-02-17T19:34:58.588Z,12.48
2023-02-17T19:37:28.728Z,12.39
2023-02-17T19:39:56.988Z,12.40
2023-02-17T19:42:26.343Z,12.46
2023-02-17T19:44:54.370Z,12.46
2023-02-17T19:47:21.988Z,12.51
2023-02-17T19:49:52.017Z,12.44
2023-02-17T19:52:21.624Z,12.47
2023-02-17T19:54:50.637Z,12.42
2023-02-17T19:57:19.060Z,12.43
2023-02-17T19:59:46.796Z,12.36
2023-02-17T20:02:17.493Z,12.32
2023-02-17T20:04:45.486Z,12.33
2023-02-17T20:07:16.126Z,12.29
2023-02-17T20:09:44.202Z,12.22
2023-02-17T20:12:12.506Z,12.14
2023-02-17T20:14:40.411Z,12.17
2023-02-17T20:17:08.132Z,12.16
2023-02-17T20:19:39.172Z,12.16
2023-02-17T20:22:07.919Z,12.24
2023-02-17T20:24:39.062Z,12.20
2023-02-17T20:27:10.308Z,12.22
2023-02-17T20:29:38.078Z,12.20
2023-02-17T20:32:07.358Z,12.21
2023-02-17T20:34:41.085Z,12.19
2023-02-17T20:37:12.693Z,12.08
2023-02-17T20:39:41.500Z,12.07
2023-02-17T20:42:09.690Z,12.01
2023-02-17T20:44:40.035Z,12.03
2023-02-17T20:47:08.403Z,11.99
2023-02-17T20:49:37.808Z,11.92
2023-02-17T20:52:06.348Z,11.83
2023-02-17T20:54:34.816Z,11.71
2023-02-17T20:57:12.052Z,11.62
2023-02-17T20:59:40.106Z,11.45
2023-02-17T21:02:08.210Z,11.37
2023-02-17T21:04:39.038Z,11.30
2023-02-17T21:07:10.156Z,11.19
2023-02-17T21:09:37.513Z,11.12
2023-02-17T21:12:09.007Z,11.15
2023-02-17T21:14:36.471Z,11.12
2023-02-17T21:17:04.294Z,11.11
2023-02-17T21:19:31.877Z,11.17
2023-02-17T21:21:59.797Z,11.17
2023-02-17T21:24:27.471Z,11.21
2023-02-17T21:26:57.182Z,11.22
2023-02-17T21:29:26.414Z,11.25
2023-02-17T21:31:54.676Z,11.27
2023-02-17T21:34:21.857Z,11.31
2023-02-17T21:36:52.002Z,11.32
2023-02-17T21:39:20.108Z,11.38
2023-02-17T21:41:47.934Z,11.41
2023-02-17T21:44:33.399Z,11.43
2023-02-17T21:47:03.364Z,11.44
2023-02-17T21:49:30.418Z,11.51
2023-02-17T21:51:58.058Z,11.53
2023-02-17T21:54:25.469Z,11.52
2023-02-17T21:56:52.985Z,11.54
2023-02-17T21:59:22.715Z,11.50
2023-02-17T22:01:52.298Z,11.51
2023-02-17T22:04:20.032Z,11.55
2023-02-17T22:06:47.836Z,11.66
2023-02-17T22:09:18.069Z,11.67
2023-02-17T22:11:46.110Z,11.62
2023-02-17T22:14:14.577Z,11.83
2023-02-17T22:16:42.010Z,11.89
2023-02-17T22:19:10.670Z,11.95
2023-02-17T22:21:38.693Z,12.12
2023-02-17T22:24:05.855Z,12.18
2023-02-17T22:26:33.112Z,12.23
2023-02-17T22:29:00.061Z,12.45
2023-02-17T22:31:28.893Z,12.47
2023-02-17T22:33:56.978Z,12.58
2023-02-17T22:36:25.183Z,12.69
2023-02-17T22:38:52.684Z,12.71
2023-02-17T22:41:21.733Z,12.67
2023-02-17T22:43:48.903Z,12.73
2023-02-17T22:46:18.194Z,12.68
2023-02-17T22:48:46.336Z,12.66
2023-02-17T22:51:15.816Z,12.62
2023-02-17T22:53:44.980Z,12.81
2023-02-17T22:56:17.554Z,12.75
2023-02-17T22:58:44.489Z,12.78
2023-02-17T23:01:15.572Z,12.78
2023-02-17T23:03:42.584Z,12.80
2023-02-17T23:06:20.711Z,12.76
2023-02-17T23:08:47.904Z,12.77
2023-02-17T23:11:19.525Z,12.81
2023-02-17T23:13:46.372Z,12.76
2023-02-17T23:16:18.666Z,12.71
2023-02-17T23:18:45.538Z,12.65
2023-02-17T23:21:13.382Z,12.77
2023-02-17T23:23:40.264Z,12.74
2023-02-17T23:26:07.941Z,12.72
2023-02-17T23:28:35.023Z,12.69
2023-02-17T23:31:02.350Z,12.68
2023-02-17T23:33:29.263Z,12.64
2023-02-17T23:35:56.652Z,12.63
2023-02-17T23:38:23.775Z,12.69
2023-02-17T23:40:53.688Z,12.68
2023-02-17T23:43:21.718Z,12.69
2023-02-17T23:45:49.362Z,12.71
2023-02-17T23:48:16.696Z,12.73
2023-02-17T23:50:43.957Z,12.73
2023-02-17T23:53:10.870Z,12.78
2023-02-17T23:55:40.108Z,12.84
2023-02-17T23:58:07.032Z,12.81
